sensor_id;sensor_type;location;lat;lon;timestamp;temperature;humidity
20483;DHT22;10400;53.198;6.592;2022-12-11T00:02:17;0.30;99.90
20483;DHT22;10400;53.198;6.592;2022-12-11T00:04:43;0.30;99.90
20483;DHT22;10400;53.198;6.592;2022-12-11T00:07:08;0.40;99.90
20483;DHT22;10400;53.198;6.592;2022-12-11T00:09:34;0.40;99.90
20483;DHT22;10400;53.198;6.592;2022-12-11T00:12:00;0.40;99.90
20483;DHT22;10400;53.198;6.592;2022-12-11T00:14:27;0.40;99.90
20483;DHT22;10400;53.198;6.592;2022-12-11T00:16:53;0.50;99.90
20483;DHT22;10400;53.198;6.592;2022-12-11T00:19:19;0.50;99.90
20483;DHT22;10400;53.198;6.592;2022-12-11T00:21:44;0.50;99.90
20483;DHT22;10400;53.198;6.592;2022-12-11T00:24:10;0.50;99.90
20483;DHT22;10400;53.198;6.592;2022-12-11T00:26:36;0.50;99.90
20483;DHT22;10400;53.198;6.592;2022-12-11T00:29:02;0.50;99.90
20483;DHT22;10400;53.198;6.592;2022-12-11T00:31:28;0.50;99.90
20483;DHT22;10400;53.198;6.592;2022-12-11T00:33:53;0.50;99.90
20483;DHT22;10400;53.198;6.592;2022-12-11T00:36:22;0.60;99.90
20483;DHT22;10400;53.198;6.592;2022-12-11T00:38:48;0.60;99.90
20483;DHT22;10400;53.198;6.592;2022-12-11T00:41:15;0.60;99.90
20483;DHT22;10400;53.198;6.592;2022-12-11T00:43:41;0.70;99.90
20483;DHT22;10400;53.198;6.592;2022-12-11T00:46:07;0.60;99.90
20483;DHT22;10400;53.198;6.592;2022-12-11T00:48:33;0.70;99.90
20483;DHT22;10400;53.198;6.592;2022-12-11T00:50:59;0.60;99.90
20483;DHT22;10400;53.198;6.592;2022-12-11T00:53:24;0.60;99.90
20483;DHT22;10400;53.198;6.592;2022-12-11T00:55:50;0.70;99.90
20483;DHT22;10400;53.198;6.592;2022-12-11T00:58:16;0.70;99.90
20483;DHT22;10400;53.198;6.592;2022-12-11T01:00:42;0.70;99.90
20483;DHT22;10400;53.198;6.592;2022-12-11T01:03:08;0.60;99.90
20483;DHT22;10400;53.198;6.592;2022-12-11T01:05:34;0.70;99.90
20483;DHT22;10400;53.198;6.592;2022-12-11T01:08:00;0.70;99.90
20483;DHT22;10400;53.198;6.592;2022-12-11T01:10:25;0.70;99.90
20483;DHT22;10400;53.198;6.592;2022-12-11T01:12:53;0.70;99.90
20483;DHT22;10400;53.198;6.592;2022-12-11T01:15:21;0.70;99.90
20483;DHT22;10400;53.198;6.592;2022-12-11T01:17:48;0.70;99.90
20483;DHT22;10400;53.198;6.592;2022-12-11T01:20:15;0.80;99.90
20483;DHT22;10400;53.198;6.592;2022-12-11T01:22:40;0.80;99.90
20483;DHT22;10400;53.198;6.592;2022-12-11T01:25:07;0.90;99.90
20483;DHT22;10400;53.198;6.592;2022-12-11T01:27:34;0.80;99.90
20483;DHT22;10400;53.198;6.592;2022-12-11T01:29:59;0.90;99.90
20483;DHT22;10400;53.198;6.592;2022-12-11T01:32:26;0.90;99.90
20483;DHT22;10400;53.198;6.592;2022-12-11T01:34:53;0.90;99.90
20483;DHT22;10400;53.198;6.592;2022-12-11T01:37:19;0.90;99.90
20483;DHT22;10400;53.198;6.592;2022-12-11T01:39:44;1.00;99.90
20483;DHT22;10400;53.198;6.592;2022-12-11T01:42:18;1.00;99.90
20483;DHT22;10400;53.198;6.592;2022-12-11T01:47:10;1.10;99.90
20483;DHT22;10400;53.198;6.592;2022-12-11T01:49:36;1.10;99.90
20483;DHT22;10400;53.198;6.592;2022-12-11T01:52:10;1.10;99.90
20483;DHT22;10400;53.198;6.592;2022-12-11T01:54:36;1.10;99.90
20483;DHT22;10400;53.198;6.592;2022-12-11T01:57:06;1.00;99.90
20483;DHT22;10400;53.198;6.592;2022-12-11T01:59:34;1.10;99.90
20483;DHT22;10400;53.198;6.592;2022-12-11T02:02:07;1.00;99.90
20483;DHT22;10400;53.198;6.592;2022-12-11T02:04:36;1.00;99.90
20483;DHT22;10400;53.198;6.592;2022-12-11T02:07:02;1.00;99.90
20483;DHT22;10400;53.198;6.592;2022-12-11T02:09:31;1.10;99.90
20483;DHT22;10400;53.198;6.592;2022-12-11T02:15:17;1.10;99.90
20483;DHT22;10400;53.198;6.592;2022-12-11T02:20:48;1.10;99.90
20483;DHT22;10400;53.198;6.592;2022-12-11T02:23:23;1.20;99.90
20483;DHT22;10400;53.198;6.592;2022-12-11T02:28:56;1.20;99.90
20483;DHT22;10400;53.198;6.592;2022-12-11T02:36:48;1.20;99.90
20483;DHT22;10400;53.198;6.592;2022-12-11T02:39:16;1.20;99.90
20483;DHT22;10400;53.198;6.592;2022-12-11T02:41:46;1.20;99.90
20483;DHT22;10400;53.198;6.592;2022-12-11T02:44:15;1.30;99.90
20483;DHT22;10400;53.198;6.592;2022-12-11T02:46:43;1.20;99.90
20483;DHT22;10400;53.198;6.592;2022-12-11T02:49:11;1.30;99.90
20483;DHT22;10400;53.198;6.592;2022-12-11T02:51:40;1.30;99.90
20483;DHT22;10400;53.198;6.592;2022-12-11T02:54:12;1.30;99.90
20483;DHT22;10400;53.198;6.592;2022-12-11T02:57:01;1.30;99.90
20483;DHT22;10400;53.198;6.592;2022-12-11T02:59:37;1.30;99.90
20483;DHT22;10400;53.198;6.592;2022-12-11T03:02:04;1.40;99.90
20483;DHT22;10400;53.198;6.592;2022-12-11T03:04:31;1.40;99.90
20483;DHT22;10400;53.198;6.592;2022-12-11T03:07:02;1.40;99.90
20483;DHT22;10400;53.198;6.592;2022-12-11T03:09:43;1.40;99.90
20483;DHT22;10400;53.198;6.592;2022-12-11T03:12:12;1.40;99.90
20483;DHT22;10400;53.198;6.592;2022-12-11T03:14:40;1.50;99.90
20483;DHT22;10400;53.198;6.592;2022-12-11T03:17:17;1.30;99.90
20483;DHT22;10400;53.198;6.592;2022-12-11T03:20:40;1.30;99.90
20483;DHT22;10400;53.198;6.592;2022-12-11T03:22:47;1.40;99.90
20483;DHT22;10400;53.198;6.592;2022-12-11T03:25:34;1.40;99.90
20483;DHT22;10400;53.198;6.592;2022-12-11T03:28:06;1.30;99.90
20483;DHT22;10400;53.198;6.592;2022-12-11T03:30:35;1.40;99.90
20483;DHT22;10400;53.198;6.592;2022-12-11T03:33:09;1.40;99.90
20483;DHT22;10400;53.198;6.592;2022-12-11T03:35:40;1.40;99.90
20483;DHT22;10400;53.198;6.592;2022-12-11T03:38:21;1.40;99.90
20483;DHT22;10400;53.198;6.592;2022-12-11T03:40:52;1.40;99.90
20483;DHT22;10400;53.198;6.592;2022-12-11T03:43:20;1.50;99.90
20483;DHT22;10400;53.198;6.592;2022-12-11T03:45:47;1.40;99.90
20483;DHT22;10400;53.198;6.592;2022-12-11T03:48:16;1.50;99.90
20483;DHT22;10400;53.198;6.592;2022-12-11T03:50:45;1.40;99.90
20483;DHT22;10400;53.198;6.592;2022-12-11T03:53:12;1.40;99.90
20483;DHT22;10400;53.198;6.592;2022-12-11T03:55:38;1.50;99.90
20483;DHT22;10400;53.198;6.592;2022-12-11T03:58:05;1.50;99.90
20483;DHT22;10400;53.198;6.592;2022-12-11T04:00:31;1.50;99.90
20483;DHT22;10400;53.198;6.592;2022-12-11T04:02:56;1.50;99.90
20483;DHT22;10400;53.198;6.592;2022-12-11T04:05:38;1.50;99.90
20483;DHT22;10400;53.198;6.592;2022-12-11T04:08:04;1.40;99.90
20483;DHT22;10400;53.198;6.592;2022-12-11T04:10:29;1.50;99.90
20483;DHT22;10400;53.198;6.592;2022-12-11T04:12:55;1.50;99.90
20483;DHT22;10400;53.198;6.592;2022-12-11T04:15:21;1.50;99.90
20483;DHT22;10400;53.198;6.592;2022-12-11T04:17:46;1.50;99.90
20483;DHT22;10400;53.198;6.592;2022-12-11T04:20:31;1.50;99.90
20483;DHT22;10400;53.198;6.592;2022-12-11T04:23:16;1.40;99.90
20483;DHT22;10400;53.198;6.592;2022-12-11T04:26:16;1.50;99.90
20483;DHT22;10400;53.198;6.592;2022-12-11T04:28:43;1.50;99.90
20483;DHT22;10400;53.198;6.592;2022-12-11T04:31:13;1.50;99.90
20483;DHT22;10400;53.198;6.592;2022-12-11T04:33:40;1.50;99.90
20483;DHT22;10400;53.198;6.592;2022-12-11T04:36:06;1.40;99.90
20483;DHT22;10400;53.198;6.592;2022-12-11T04:38:32;1.50;99.90
20483;DHT22;10400;53.198;6.592;2022-12-11T04:41:06;1.40;99.90
20483;DHT22;10400;53.198;6.592;2022-12-11T04:43:33;1.40;99.90
20483;DHT22;10400;53.198;6.592;2022-12-11T04:46:05;1.40;99.90
20483;DHT22;10400;53.198;6.592;2022-12-11T04:48:31;1.40;99.90
20483;DHT22;10400;53.198;6.592;2022-12-11T04:50:57;1.50;99.90
20483;DHT22;10400;53.198;6.592;2022-12-11T04:53:23;1.50;99.90
20483;DHT22;10400;53.198;6.592;2022-12-11T04:55:49;1.50;99.90
20483;DHT22;10400;53.198;6.592;2022-12-11T04:58:15;1.60;99.90
20483;DHT22;10400;53.198;6.592;2022-12-11T05:00:41;1.50;99.90
20483;DHT22;10400;53.198;6.592;2022-12-11T05:03:07;1.50;99.90
20483;DHT22;10400;53.198;6.592;2022-12-11T05:05:33;1.60;99.90
20483;DHT22;10400;53.198;6.592;2022-12-11T05:07:58;1.60;99.90
20483;DHT22;10400;53.198;6.592;2022-12-11T05:10:24;1.60;99.90
20483;DHT22;10400;53.198;6.592;2022-12-11T05:12:50;1.70;99.90
20483;DHT22;10400;53.198;6.592;2022-12-11T05:15:16;1.60;99.90
20483;DHT22;10400;53.198;6.592;2022-12-11T05:17:41;1.60;99.90
20483;DHT22;10400;53.198;6.592;2022-12-11T05:20:07;1.60;99.90
20483;DHT22;10400;53.198;6.592;2022-12-11T05:22:34;1.50;99.90
20483;DHT22;10400;53.198;6.592;2022-12-11T05:24:59;1.50;99.90
20483;DHT22;10400;53.198;6.592;2022-12-11T05:27:25;1.50;99.90
20483;DHT22;10400;53.198;6.592;2022-12-11T05:29:50;1.60;99.90
20483;DHT22;10400;53.198;6.592;2022-12-11T05:32:16;1.60;99.90
20483;DHT22;10400;53.198;6.592;2022-12-11T05:34:42;1.50;99.90
20483;DHT22;10400;53.198;6.592;2022-12-11T05:37:07;1.50;99.90
20483;DHT22;10400;53.198;6.592;2022-12-11T05:39:33;1.40;99.90
20483;DHT22;10400;53.198;6.592;2022-12-11T05:41:58;1.50;99.90
20483;DHT22;10400;53.198;6.592;2022-12-11T05:44:24;1.40;99.90
20483;DHT22;10400;53.198;6.592;2022-12-11T05:46:50;1.50;99.90
20483;DHT22;10400;53.198;6.592;2022-12-11T05:49:15;1.50;99.90
20483;DHT22;10400;53.198;6.592;2022-12-11T05:51:41;1.60;99.90
20483;DHT22;10400;53.198;6.592;2022-12-11T05:54:08;1.60;99.90
20483;DHT22;10400;53.198;6.592;2022-12-11T05:56:34;1.60;99.90
20483;DHT22;10400;53.198;6.592;2022-12-11T05:59:02;1.70;99.90
20483;DHT22;10400;53.198;6.592;2022-12-11T06:01:31;1.70;99.90
20483;DHT22;10400;53.198;6.592;2022-12-11T06:03:58;1.60;99.90
20483;DHT22;10400;53.198;6.592;2022-12-11T06:06:24;1.60;99.90
20483;DHT22;10400;53.198;6.592;2022-12-11T06:08:51;1.70;99.90
20483;DHT22;10400;53.198;6.592;2022-12-11T06:11:17;1.60;99.90
20483;DHT22;10400;53.198;6.592;2022-12-11T06:13:43;1.60;99.90
20483;DHT22;10400;53.198;6.592;2022-12-11T06:16:08;1.60;99.90
20483;DHT22;10400;53.198;6.592;2022-12-11T06:18:40;1.60;99.90
20483;DHT22;10400;53.198;6.592;2022-12-11T06:21:21;1.60;99.90
20483;DHT22;10400;53.198;6.592;2022-12-11T06:23:48;1.60;99.90
20483;DHT22;10400;53.198;6.592;2022-12-11T06:26:14;1.70;99.90
20483;DHT22;10400;53.198;6.592;2022-12-11T06:28:40;1.70;99.90
20483;DHT22;10400;53.198;6.592;2022-12-11T06:31:06;1.70;99.90
20483;DHT22;10400;53.198;6.592;2022-12-11T06:33:32;1.70;99.90
20483;DHT22;10400;53.198;6.592;2022-12-11T06:36:18;1.70;99.90
20483;DHT22;10400;53.198;6.592;2022-12-11T06:38:44;1.70;99.90
20483;DHT22;10400;53.198;6.592;2022-12-11T06:41:10;1.60;99.90
20483;DHT22;10400;53.198;6.592;2022-12-11T06:43:38;1.60;99.90
20483;DHT22;10400;53.198;6.592;2022-12-11T06:46:14;1.60;99.90
20483;DHT22;10400;53.198;6.592;2022-12-11T06:48:40;1.70;99.90
20483;DHT22;10400;53.198;6.592;2022-12-11T06:51:11;1.70;99.90
20483;DHT22;10400;53.198;6.592;2022-12-11T06:53:38;1.70;99.90
20483;DHT22;10400;53.198;6.592;2022-12-11T06:56:05;1.70;99.90
20483;DHT22;10400;53.198;6.592;2022-12-11T06:58:32;1.70;99.90
20483;DHT22;10400;53.198;6.592;2022-12-11T07:00:58;1.60;99.90
20483;DHT22;10400;53.198;6.592;2022-12-11T07:03:23;1.60;99.90
20483;DHT22;10400;53.198;6.592;2022-12-11T07:05:49;1.70;99.90
20483;DHT22;10400;53.198;6.592;2022-12-11T07:08:14;1.60;99.90
20483;DHT22;10400;53.198;6.592;2022-12-11T07:10:40;1.60;99.90
20483;DHT22;10400;53.198;6.592;2022-12-11T07:13:06;1.60;99.90
20483;DHT22;10400;53.198;6.592;2022-12-11T07:15:31;1.70;99.90
20483;DHT22;10400;53.198;6.592;2022-12-11T07:17:57;1.70;99.90
20483;DHT22;10400;53.198;6.592;2022-12-11T07:20:23;1.70;99.90
20483;DHT22;10400;53.198;6.592;2022-12-11T07:22:48;1.70;99.90
20483;DHT22;10400;53.198;6.592;2022-12-11T07:25:14;1.70;99.90
20483;DHT22;10400;53.198;6.592;2022-12-11T07:27:40;1.70;99.90
20483;DHT22;10400;53.198;6.592;2022-12-11T07:30:06;1.70;99.90
20483;DHT22;10400;53.198;6.592;2022-12-11T07:32:32;1.70;99.90
20483;DHT22;10400;53.198;6.592;2022-12-11T07:34:58;1.60;99.90
20483;DHT22;10400;53.198;6.592;2022-12-11T07:37:24;1.70;99.90
20483;DHT22;10400;53.198;6.592;2022-12-11T07:39:49;1.70;99.90
20483;DHT22;10400;53.198;6.592;2022-12-11T07:42:15;1.60;99.90
20483;DHT22;10400;53.198;6.592;2022-12-11T07:44:41;1.70;99.90
20483;DHT22;10400;53.198;6.592;2022-12-11T07:47:06;1.70;99.90
20483;DHT22;10400;53.198;6.592;2022-12-11T07:49:32;1.70;99.90
20483;DHT22;10400;53.198;6.592;2022-12-11T07:51:57;1.70;99.90
20483;DHT22;10400;53.198;6.592;2022-12-11T07:54:23;1.70;99.90
20483;DHT22;10400;53.198;6.592;2022-12-11T07:56:49;1.70;99.90
20483;DHT22;10400;53.198;6.592;2022-12-11T07:59:14;1.70;99.90
20483;DHT22;10400;53.198;6.592;2022-12-11T08:01:41;1.70;99.90
20483;DHT22;10400;53.198;6.592;2022-12-11T08:04:09;1.80;99.90
20483;DHT22;10400;53.198;6.592;2022-12-11T08:06:37;1.80;99.90
20483;DHT22;10400;53.198;6.592;2022-12-11T08:09:06;1.80;99.90
20483;DHT22;10400;53.198;6.592;2022-12-11T08:11:32;1.80;99.90
20483;DHT22;10400;53.198;6.592;2022-12-11T08:13:58;1.80;99.90
20483;DHT22;10400;53.198;6.592;2022-12-11T08:16:24;1.80;99.90
20483;DHT22;10400;53.198;6.592;2022-12-11T08:18:51;1.80;99.90
20483;DHT22;10400;53.198;6.592;2022-12-11T08:21:22;1.80;99.90
20483;DHT22;10400;53.198;6.592;2022-12-11T08:23:48;1.80;99.90
20483;DHT22;10400;53.198;6.592;2022-12-11T08:26:17;1.90;99.90
20483;DHT22;10400;53.198;6.592;2022-12-11T08:28:43;1.90;99.90
20483;DHT22;10400;53.198;6.592;2022-12-11T08:31:11;1.90;99.90
20483;DHT22;10400;53.198;6.592;2022-12-11T08:33:38;1.90;99.90
20483;DHT22;10400;53.198;6.592;2022-12-11T08:36:06;1.90;99.90
20483;DHT22;10400;53.198;6.592;2022-12-11T08:38:32;2.00;99.90
20483;DHT22;10400;53.198;6.592;2022-12-11T08:41:13;1.90;99.90
20483;DHT22;10400;53.198;6.592;2022-12-11T08:43:39;2.00;99.90
20483;DHT22;10400;53.198;6.592;2022-12-11T08:46:05;2.00;99.90
20483;DHT22;10400;53.198;6.592;2022-12-11T08:48:35;2.00;99.90
20483;DHT22;10400;53.198;6.592;2022-12-11T08:51:03;1.90;99.90
20483;DHT22;10400;53.198;6.592;2022-12-11T08:53:30;2.00;99.90
20483;DHT22;10400;53.198;6.592;2022-12-11T08:56:04;2.00;99.90
20483;DHT22;10400;53.198;6.592;2022-12-11T08:58:30;1.90;99.90
20483;DHT22;10400;53.198;6.592;2022-12-11T09:00:56;1.80;99.90
20483;DHT22;10400;53.198;6.592;2022-12-11T09:03:23;1.90;99.90
20483;DHT22;10400;53.198;6.592;2022-12-11T09:05:48;1.90;99.90
20483;DHT22;10400;53.198;6.592;2022-12-11T09:08:14;1.80;99.90
20483;DHT22;10400;53.198;6.592;2022-12-11T09:10:40;1.90;99.90
20483;DHT22;10400;53.198;6.592;2022-12-11T09:13:06;1.90;99.90
20483;DHT22;10400;53.198;6.592;2022-12-11T09:15:32;1.90;99.90
20483;DHT22;10400;53.198;6.592;2022-12-11T09:17:57;1.90;99.90
20483;DHT22;10400;53.198;6.592;2022-12-11T09:20:23;1.90;99.90
20483;DHT22;10400;53.198;6.592;2022-12-11T09:22:49;2.00;99.90
20483;DHT22;10400;53.198;6.592;2022-12-11T09:25:14;2.00;99.90
20483;DHT22;10400;53.198;6.592;2022-12-11T09:27:40;2.10;99.90
20483;DHT22;10400;53.198;6.592;2022-12-11T09:30:06;2.10;99.90
20483;DHT22;10400;53.198;6.592;2022-12-11T09:32:32;2.00;99.90
20483;DHT22;10400;53.198;6.592;2022-12-11T09:34:58;2.00;99.90
20483;DHT22;10400;53.198;6.592;2022-12-11T09:37:23;2.00;99.90
20483;DHT22;10400;53.198;6.592;2022-12-11T09:39:49;2.00;99.90
20483;DHT22;10400;53.198;6.592;2022-12-11T09:42:26;2.10;99.90
20483;DHT22;10400;53.198;6.592;2022-12-11T09:44:57;2.10;99.90
20483;DHT22;10400;53.198;6.592;2022-12-11T09:47:33;2.20;99.90
20483;DHT22;10400;53.198;6.592;2022-12-11T09:55:55;2.10;99.90
20483;DHT22;10400;53.198;6.592;2022-12-11T10:17:08;2.20;99.90
20483;DHT22;10400;53.198;6.592;2022-12-11T10:19:34;2.00;99.90
20483;DHT22;10400;53.198;6.592;2022-12-11T10:22:01;2.00;99.90
20483;DHT22;10400;53.198;6.592;2022-12-11T10:24:36;2.00;99.90
20483;DHT22;10400;53.198;6.592;2022-12-11T10:27:18;2.10;99.90
20483;DHT22;10400;53.198;6.592;2022-12-11T10:29:46;2.20;99.90
20483;DHT22;10400;53.198;6.592;2022-12-11T10:32:22;2.30;99.90
20483;DHT22;10400;53.198;6.592;2022-12-11T10:34:58;2.10;99.90
20483;DHT22;10400;53.198;6.592;2022-12-11T10:37:25;2.10;99.90
20483;DHT22;10400;53.198;6.592;2022-12-11T10:39:51;2.10;99.90
20483;DHT22;10400;53.198;6.592;2022-12-11T10:42:19;2.20;99.90
20483;DHT22;10400;53.198;6.592;2022-12-11T10:45:02;2.30;99.90
20483;DHT22;10400;53.198;6.592;2022-12-11T10:47:28;2.30;99.90
20483;DHT22;10400;53.198;6.592;2022-12-11T10:49:59;2.20;99.90
20483;DHT22;10400;53.198;6.592;2022-12-11T10:52:37;2.20;99.90
20483;DHT22;10400;53.198;6.592;2022-12-11T10:55:26;2.30;99.90
20483;DHT22;10400;53.198;6.592;2022-12-11T10:58:02;2.30;99.90
20483;DHT22;10400;53.198;6.592;2022-12-11T11:00:33;2.30;99.90
20483;DHT22;10400;53.198;6.592;2022-12-11T11:03:01;2.30;99.90
20483;DHT22;10400;53.198;6.592;2022-12-11T11:05:32;2.30;99.90
20483;DHT22;10400;53.198;6.592;2022-12-11T11:08:16;2.30;99.90
20483;DHT22;10400;53.198;6.592;2022-12-11T11:10:56;2.40;99.90
20483;DHT22;10400;53.198;6.592;2022-12-11T11:13:23;2.30;99.90
20483;DHT22;10400;53.198;6.592;2022-12-11T11:15:59;2.50;99.90
20483;DHT22;10400;53.198;6.592;2022-12-11T11:18:26;2.40;99.90
20483;DHT22;10400;53.198;6.592;2022-12-11T11:20:52;2.40;99.90
20483;DHT22;10400;53.198;6.592;2022-12-11T11:23:19;2.40;99.90
20483;DHT22;10400;53.198;6.592;2022-12-11T11:26:05;2.50;99.90
20483;DHT22;10400;53.198;6.592;2022-12-11T11:28:52;2.50;99.90
20483;DHT22;10400;53.198;6.592;2022-12-11T11:31:21;2.40;99.90
20483;DHT22;10400;53.198;6.592;2022-12-11T11:33:57;2.50;99.90
20483;DHT22;10400;53.198;6.592;2022-12-11T11:36:27;2.50;99.90
20483;DHT22;10400;53.198;6.592;2022-12-11T11:39:04;2.50;99.90
20483;DHT22;10400;53.198;6.592;2022-12-11T11:42:29;2.50;99.90
20483;DHT22;10400;53.198;6.592;2022-12-11T11:44:40;2.50;99.90
20483;DHT22;10400;53.198;6.592;2022-12-11T11:47:26;2.40;99.90
20483;DHT22;10400;53.198;6.592;2022-12-11T11:50:05;2.50;99.90
20483;DHT22;10400;53.198;6.592;2022-12-11T11:52:37;2.40;99.90
20483;DHT22;10400;53.198;6.592;2022-12-11T11:55:38;2.40;99.90
20483;DHT22;10400;53.198;6.592;2022-12-11T12:01:13;2.40;99.90
20483;DHT22;10400;53.198;6.592;2022-12-11T12:03:39;2.50;99.90
20483;DHT22;10400;53.198;6.592;2022-12-11T12:08:45;2.50;99.90
20483;DHT22;10400;53.198;6.592;2022-12-11T12:11:25;2.50;99.90
20483;DHT22;10400;53.198;6.592;2022-12-11T12:16:54;2.50;99.90
20483;DHT22;10400;53.198;6.592;2022-12-11T12:22:09;2.50;99.90
20483;DHT22;10400;53.198;6.592;2022-12-11T12:27:35;2.60;99.90
20483;DHT22;10400;53.198;6.592;2022-12-11T12:30:07;2.60;99.90
20483;DHT22;10400;53.198;6.592;2022-12-11T12:32:58;2.60;99.90
20483;DHT22;10400;53.198;6.592;2022-12-11T12:35:36;2.60;99.90
20483;DHT22;10400;53.198;6.592;2022-12-11T12:38:22;2.50;99.90
20483;DHT22;10400;53.198;6.592;2022-12-11T12:41:20;2.60;99.90
20483;DHT22;10400;53.198;6.592;2022-12-11T12:49:42;2.50;99.90
20483;DHT22;10400;53.198;6.592;2022-12-11T12:52:30;2.60;99.90
20483;DHT22;10400;53.198;6.592;2022-12-11T12:54:59;2.50;99.90
20483;DHT22;10400;53.198;6.592;2022-12-11T12:57:41;2.60;99.90
20483;DHT22;10400;53.198;6.592;2022-12-11T13:00:07;2.70;99.90
20483;DHT22;10400;53.198;6.592;2022-12-11T13:02:36;2.60;99.90
20483;DHT22;10400;53.198;6.592;2022-12-11T13:05:14;2.50;99.90
20483;DHT22;10400;53.198;6.592;2022-12-11T13:07:48;2.60;99.90
20483;DHT22;10400;53.198;6.592;2022-12-11T13:10:34;2.60;99.90
20483;DHT22;10400;53.198;6.592;2022-12-11T13:13:02;2.60;99.90
20483;DHT22;10400;53.198;6.592;2022-12-11T13:15:36;2.70;99.90
20483;DHT22;10400;53.198;6.592;2022-12-11T13:18:32;2.50;99.90
20483;DHT22;10400;53.198;6.592;2022-12-11T13:20:59;2.60;99.90
20483;DHT22;10400;53.198;6.592;2022-12-11T13:23:33;2.60;99.90
20483;DHT22;10400;53.198;6.592;2022-12-11T13:26:01;2.70;99.90
20483;DHT22;10400;53.198;6.592;2022-12-11T13:28:45;2.70;99.90
20483;DHT22;10400;53.198;6.592;2022-12-11T13:33:51;2.60;99.90
20483;DHT22;10400;53.198;6.592;2022-12-11T13:38:57;2.40;99.90
20483;DHT22;10400;53.198;6.592;2022-12-11T13:41:26;2.50;99.90
20483;DHT22;10400;53.198;6.592;2022-12-11T13:43:52;2.40;99.90
20483;DHT22;10400;53.198;6.592;2022-12-11T13:46:22;2.50;99.90
20483;DHT22;10400;53.198;6.592;2022-12-11T13:48:53;2.40;99.90
20483;DHT22;10400;53.198;6.592;2022-12-11T13:51:23;2.30;99.90
20483;DHT22;10400;53.198;6.592;2022-12-11T13:54:11;2.40;99.90
20483;DHT22;10400;53.198;6.592;2022-12-11T13:56:38;2.40;99.90
20483;DHT22;10400;53.198;6.592;2022-12-11T13:59:04;2.40;99.90
20483;DHT22;10400;53.198;6.592;2022-12-11T14:01:32;2.30;99.90
20483;DHT22;10400;53.198;6.592;2022-12-11T14:04:09;2.40;99.90
20483;DHT22;10400;53.198;6.592;2022-12-11T14:06:37;2.50;99.90
20483;DHT22;10400;53.198;6.592;2022-12-11T14:09:04;2.50;99.90
20483;DHT22;10400;53.198;6.592;2022-12-11T14:11:37;2.50;99.90
20483;DHT22;10400;53.198;6.592;2022-12-11T14:14:07;2.50;99.90
20483;DHT22;10400;53.198;6.592;2022-12-11T14:16:33;2.40;99.90
20483;DHT22;10400;53.198;6.592;2022-12-11T14:19:03;2.50;99.90
20483;DHT22;10400;53.198;6.592;2022-12-11T14:21:29;2.50;99.90
20483;DHT22;10400;53.198;6.592;2022-12-11T14:24:00;2.50;99.90
20483;DHT22;10400;53.198;6.592;2022-12-11T14:26:34;2.50;99.90
20483;DHT22;10400;53.198;6.592;2022-12-11T14:29:02;2.50;99.90
20483;DHT22;10400;53.198;6.592;2022-12-11T14:31:32;2.50;99.90
20483;DHT22;10400;53.198;6.592;2022-12-11T14:34:14;2.50;99.90
20483;DHT22;10400;53.198;6.592;2022-12-11T14:36:42;2.50;99.90
20483;DHT22;10400;53.198;6.592;2022-12-11T14:39:18;2.50;99.90
20483;DHT22;10400;53.198;6.592;2022-12-11T14:41:48;2.50;99.90
20483;DHT22;10400;53.198;6.592;2022-12-11T14:44:19;2.40;99.90
20483;DHT22;10400;53.198;6.592;2022-12-11T14:46:49;2.40;99.90
20483;DHT22;10400;53.198;6.592;2022-12-11T14:49:21;2.40;99.90
20483;DHT22;10400;53.198;6.592;2022-12-11T14:51:49;2.30;99.90
20483;DHT22;10400;53.198;6.592;2022-12-11T14:54:37;2.40;99.90
20483;DHT22;10400;53.198;6.592;2022-12-11T14:57:06;2.30;99.90
20483;DHT22;10400;53.198;6.592;2022-12-11T14:59:39;2.40;99.90
20483;DHT22;10400;53.198;6.592;2022-12-11T15:02:37;2.30;99.90
20483;DHT22;10400;53.198;6.592;2022-12-11T15:07:28;2.40;99.90
20483;DHT22;10400;53.198;6.592;2022-12-11T15:09:54;2.30;99.90
20483;DHT22;10400;53.198;6.592;2022-12-11T15:12:19;2.30;99.90
20483;DHT22;10400;53.198;6.592;2022-12-11T15:17:13;2.30;99.90
20483;DHT22;10400;53.198;6.592;2022-12-11T15:19:39;2.30;99.90
20483;DHT22;10400;53.198;6.592;2022-12-11T15:22:07;2.30;99.90
20483;DHT22;10400;53.198;6.592;2022-12-11T15:24:39;2.30;99.90
20483;DHT22;10400;53.198;6.592;2022-12-11T15:29:54;2.30;99.90
20483;DHT22;10400;53.198;6.592;2022-12-11T15:32:21;2.30;99.90
20483;DHT22;10400;53.198;6.592;2022-12-11T15:34:58;2.30;99.90
20483;DHT22;10400;53.198;6.592;2022-12-11T15:37:28;2.40;99.90
20483;DHT22;10400;53.198;6.592;2022-12-11T15:39:55;2.40;99.90
20483;DHT22;10400;53.198;6.592;2022-12-11T15:42:36;2.40;99.90
20483;DHT22;10400;53.198;6.592;2022-12-11T15:45:14;2.40;99.90
20483;DHT22;10400;53.198;6.592;2022-12-11T15:47:41;2.40;99.90
20483;DHT22;10400;53.198;6.592;2022-12-11T15:52:40;2.40;99.90
20483;DHT22;10400;53.198;6.592;2022-12-11T15:55:06;2.30;99.90
20483;DHT22;10400;53.198;6.592;2022-12-11T15:57:33;2.30;99.90
20483;DHT22;10400;53.198;6.592;2022-12-11T15:59:58;2.30;99.90
20483;DHT22;10400;53.198;6.592;2022-12-11T16:02:24;2.30;99.90
20483;DHT22;10400;53.198;6.592;2022-12-11T16:04:52;2.40;99.90
20483;DHT22;10400;53.198;6.592;2022-12-11T16:07:23;2.40;99.90
20483;DHT22;10400;53.198;6.592;2022-12-11T16:09:49;2.40;99.90
20483;DHT22;10400;53.198;6.592;2022-12-11T16:12:15;2.40;99.90
20483;DHT22;10400;53.198;6.592;2022-12-11T16:14:42;2.30;99.90
20483;DHT22;10400;53.198;6.592;2022-12-11T16:17:09;2.20;99.90
20483;DHT22;10400;53.198;6.592;2022-12-11T16:19:35;2.30;99.90
20483;DHT22;10400;53.198;6.592;2022-12-11T16:22:01;2.30;99.90
20483;DHT22;10400;53.198;6.592;2022-12-11T16:24:27;2.30;99.90
20483;DHT22;10400;53.198;6.592;2022-12-11T16:26:53;2.40;99.90
20483;DHT22;10400;53.198;6.592;2022-12-11T16:29:18;2.30;99.90
20483;DHT22;10400;53.198;6.592;2022-12-11T16:31:44;2.20;99.90
20483;DHT22;10400;53.198;6.592;2022-12-11T16:34:09;2.20;99.90
20483;DHT22;10400;53.198;6.592;2022-12-11T16:36:35;2.20;99.90
20483;DHT22;10400;53.198;6.592;2022-12-11T16:39:01;2.20;99.90
20483;DHT22;10400;53.198;6.592;2022-12-11T16:41:26;2.30;99.90
20483;DHT22;10400;53.198;6.592;2022-12-11T16:43:52;2.30;99.90
20483;DHT22;10400;53.198;6.592;2022-12-11T16:46:20;2.30;99.90
20483;DHT22;10400;53.198;6.592;2022-12-11T16:48:46;2.30;99.90
20483;DHT22;10400;53.198;6.592;2022-12-11T16:51:12;2.20;99.90
20483;DHT22;10400;53.198;6.592;2022-12-11T16:53:38;2.20;99.90
20483;DHT22;10400;53.198;6.592;2022-12-11T16:56:05;2.20;99.90
20483;DHT22;10400;53.198;6.592;2022-12-11T16:58:31;2.20;99.90
20483;DHT22;10400;53.198;6.592;2022-12-11T17:00:56;2.20;99.90
20483;DHT22;10400;53.198;6.592;2022-12-11T17:03:30;2.10;99.90
20483;DHT22;10400;53.198;6.592;2022-12-11T17:05:56;2.20;99.90
20483;DHT22;10400;53.198;6.592;2022-12-11T17:08:23;2.20;99.90
20483;DHT22;10400;53.198;6.592;2022-12-11T17:10:49;2.20;99.90
20483;DHT22;10400;53.198;6.592;2022-12-11T17:13:15;2.20;99.90
20483;DHT22;10400;53.198;6.592;2022-12-11T17:15:42;2.30;99.90
20483;DHT22;10400;53.198;6.592;2022-12-11T17:18:08;2.20;99.90